Time;durP1;ratioP1;P1;durP2;ratioP2;P2;SDS_P1;SDS_P2;PMS_P1;PMS_P2;Temp;Humidity;BMP_temperature;BMP_pressure;BME280_temperature;BME280_humidity;BME280_pressure;Samples;Min_cycle;Max_cycle;Signal;HPM_P1;HPM_P2
2021/03/06 00:00:18;;;;;;;;;10.67;10.67;;;;;;;;5021248;28;8881;-77
2021/03/06 00:02:45;;;;;;;;;10.67;10.67;;;;;;;;5020793;28;8900;-75
2021/03/06 00:05:13;;;;;;;;;9.00;9.00;;;;;;;;5022724;28;9634;-75
2021/03/06 00:07:40;;;;;;;;;10.00;10.00;;;;;;;;5024553;28;8910;-74
2021/03/06 00:10:11;;;;;;;;;9.33;9.33;;;;;;;;5024067;28;9661;-77
2021/03/06 00:12:39;;;;;;;;;9.00;7.00;;;;;;;;5023333;28;8883;-75
2021/03/06 00:15:07;;;;;;;;;10.00;10.00;;;;;;;;5024672;28;8904;-77
2021/03/06 00:17:34;;;;;;;;;9.33;9.33;;;;;;;;5019693;28;8874;-75
2021/03/06 00:20:01;;;;;;;;;7.00;7.00;;;;;;;;5020485;28;8874;-75
2021/03/06 00:22:28;;;;;;;;;13.00;13.00;;;;;;;;5023378;28;8949;-79
2021/03/06 00:24:56;;;;;;;;;10.33;10.33;;;;;;;;5022632;28;8861;-75
2021/03/06 00:27:25;;;;;;;;;10.67;10.67;;;;;;;;5024255;28;8856;-75
2021/03/06 00:29:52;;;;;;;;;15.33;15.33;;;;;;;;5030057;28;8874;-77
2021/03/06 00:32:19;;;;;;;;;9.33;9.33;;;;;;;;5023877;28;8833;-75
2021/03/06 00:34:46;;;;;;;;;13.00;13.00;;;;;;;;5025227;28;8864;-75
2021/03/06 00:37:12;;;;;;;;;10.00;10.00;;;;;;;;5026506;28;8877;-76
2021/03/06 00:39:39;;;;;;;;;9.33;9.33;;;;;;;;5023999;28;8882;-78
2021/03/06 00:42:06;;;;;;;;;13.33;12.33;;;;;;;;5011905;28;8999;-74
2021/03/06 00:44:34;;;;;;;;;11.33;11.33;;;;;;;;5023334;28;9666;-76
2021/03/06 00:47:01;;;;;;;;;9.00;9.00;;;;;;;;5025749;28;8876;-77
2021/03/06 00:49:28;;;;;;;;;10.67;10.67;;;;;;;;5008572;28;8853;-76
2021/03/06 00:51:55;;;;;;;;;13.67;13.67;;;;;;;;5022672;28;8912;-76
2021/03/06 00:54:22;;;;;;;;;12.00;12.00;;;;;;;;5024906;28;8868;-75
2021/03/06 00:56:49;;;;;;;;;10.00;10.00;;;;;;;;5020251;28;8884;-74
2021/03/06 00:59:16;;;;;;;;;13.33;11.00;;;;;;;;5025868;28;8969;-74
2021/03/06 01:01:44;;;;;;;;;12.67;11.67;;;;;;;;5022301;28;8960;-78
2021/03/06 01:04:11;;;;;;;;;12.00;12.00;;;;;;;;5025762;28;8908;-75
2021/03/06 01:06:38;;;;;;;;;15.00;15.00;;;;;;;;5009296;28;8857;-79
2021/03/06 01:09:05;;;;;;;;;13.67;13.67;;;;;;;;5023510;28;9012;-79
2021/03/06 01:11:32;;;;;;;;;14.67;14.67;;;;;;;;5008683;28;8888;-78
2021/03/06 01:13:59;;;;;;;;;16.67;16.67;;;;;;;;5023991;28;8852;-79
2021/03/06 01:16:26;;;;;;;;;10.00;10.00;;;;;;;;5025562;28;8921;-78
2021/03/06 01:18:54;;;;;;;;;11.33;11.33;;;;;;;;5021444;28;8869;-80
2021/03/06 01:21:20;;;;;;;;;12.00;12.00;;;;;;;;5029261;28;8873;-78
2021/03/06 01:23:47;;;;;;;;;15.00;15.00;;;;;;;;5026055;28;8863;-78
2021/03/06 01:26:14;;;;;;;;;13.33;12.00;;;;;;;;5025501;28;8880;-79
2021/03/06 01:28:41;;;;;;;;;13.00;13.00;;;;;;;;5004204;28;8855;-80
2021/03/06 01:31:08;;;;;;;;;15.00;15.00;;;;;;;;5019272;28;8844;-77
2021/03/06 01:33:35;;;;;;;;;16.00;16.00;;;;;;;;5028612;28;8868;-79
2021/03/06 01:36:03;;;;;;;;;15.00;15.00;;;;;;;;5025045;28;8889;-81
2021/03/06 01:38:30;;;;;;;;;8.33;8.33;;;;;;;;5026357;28;8905;-82
2021/03/06 01:40:57;;;;;;;;;15.67;15.67;;;;;;;;4991737;28;8856;-81
2021/03/06 01:43:24;;;;;;;;;15.33;15.33;;;;;;;;5025765;28;8869;-78
2021/03/06 01:45:51;;;;;;;;;10.00;10.00;;;;;;;;4990051;28;8880;-80
2021/03/06 01:48:18;;;;;;;;;16.00;16.00;;;;;;;;5021255;28;9622;-80
2021/03/06 01:50:46;;;;;;;;;13.00;13.00;;;;;;;;5025829;28;8908;-76
2021/03/06 01:53:15;;;;;;;;;12.67;12.67;;;;;;;;5024473;28;8896;-76
2021/03/06 01:55:45;;;;;;;;;13.00;13.00;;;;;;;;5024980;28;9432;-79
2021/03/06 01:58:13;;;;;;;;;11.67;10.67;;;;;;;;5026323;28;8972;-77
2021/03/06 02:00:39;;;;;;;;;15.67;13.67;;;;;;;;5031962;28;9638;-78
2021/03/06 02:03:06;;;;;;;;;13.00;13.00;;;;;;;;5007764;28;8853;-79
2021/03/06 02:05:33;;;;;;;;;12.67;12.00;;;;;;;;5025170;28;8875;-77
2021/03/06 02:08:03;;;;;;;;;13.67;13.67;;;;;;;;5006923;28;8957;-79
2021/03/06 02:10:32;;;;;;;;;12.33;12.33;;;;;;;;5025026;28;8861;-79
2021/03/06 02:13:31;;;;;;;;;11.33;11.33;;;;;;;;5025436;28;8913;-79
2021/03/06 02:16:07;;;;;;;;;17.33;15.67;;;;;;;;5020064;28;8844;-76
2021/03/06 02:18:38;;;;;;;;;16.00;16.00;;;;;;;;5013470;28;8918;-80
2021/03/06 02:21:22;;;;;;;;;15.00;15.00;;;;;;;;5025337;28;9654;-78
2021/03/06 02:24:22;;;;;;;;;15.00;15.00;;;;;;;;5007829;28;8860;-76
2021/03/06 02:27:01;;;;;;;;;21.00;19.00;;;;;;;;5023739;28;8926;-78
2021/03/06 02:29:48;;;;;;;;;15.67;15.67;;;;;;;;5024732;28;8930;-77
2021/03/06 02:32:19;;;;;;;;;15.33;12.00;;;;;;;;5001560;28;9619;-80
2021/03/06 02:34:50;;;;;;;;;18.33;15.33;;;;;;;;5021715;28;9643;-79
2021/03/06 02:37:20;;;;;;;;;16.67;16.67;;;;;;;;5019748;28;9015;-78
2021/03/06 02:39:49;;;;;;;;;13.00;13.00;;;;;;;;5024740;28;9684;-81
2021/03/06 02:42:20;;;;;;;;;16.67;16.67;;;;;;;;5023704;28;8881;-81
2021/03/06 02:44:50;;;;;;;;;15.00;15.00;;;;;;;;5023907;28;8876;-78
2021/03/06 02:47:17;;;;;;;;;18.00;18.00;;;;;;;;5025797;28;8884;-79
2021/03/06 02:49:51;;;;;;;;;17.33;17.33;;;;;;;;5022936;28;8930;-81
2021/03/06 02:52:19;;;;;;;;;13.00;13.00;;;;;;;;5024847;28;8857;-81
2021/03/06 02:54:46;;;;;;;;;15.67;15.67;;;;;;;;5022276;28;8844;-80
2021/03/06 02:57:34;;;;;;;;;22.00;22.00;;;;;;;;5024110;28;8880;-81
2021/03/06 03:00:10;;;;;;;;;13.67;13.67;;;;;;;;4979987;28;8872;-78
2021/03/06 03:02:44;;;;;;;;;17.33;17.33;;;;;;;;5023265;28;8845;-79
2021/03/06 03:05:18;;;;;;;;;15.33;15.33;;;;;;;;5023027;28;8841;-79
2021/03/06 03:07:50;;;;;;;;;14.33;14.33;;;;;;;;5023756;28;8868;-75
2021/03/06 03:10:19;;;;;;;;;14.33;14.33;;;;;;;;5019996;28;8871;-79
2021/03/06 03:12:51;;;;;;;;;15.00;15.00;;;;;;;;5024410;28;8910;-75
2021/03/06 03:15:21;;;;;;;;;17.33;17.33;;;;;;;;5021072;28;9639;-77
2021/03/06 03:17:50;;;;;;;;;15.00;15.00;;;;;;;;5024293;28;9635;-79
2021/03/06 03:20:25;;;;;;;;;16.00;16.00;;;;;;;;5023822;28;9057;-79
2021/03/06 03:22:56;;;;;;;;;19.00;19.00;;;;;;;;5023454;28;8861;-77
2021/03/06 03:25:23;;;;;;;;;15.33;15.33;;;;;;;;5024320;28;8874;-75
2021/03/06 03:27:51;;;;;;;;;13.67;13.67;;;;;;;;5022881;28;8867;-77
2021/03/06 03:30:21;;;;;;;;;21.33;21.33;;;;;;;;5022750;28;8914;-78
2021/03/06 03:32:51;;;;;;;;;19.67;19.67;;;;;;;;5010781;28;8883;-75
2021/03/06 03:35:20;;;;;;;;;21.00;21.00;;;;;;;;5024902;28;8845;-77
2021/03/06 03:37:50;;;;;;;;;19.67;19.67;;;;;;;;5022345;28;8856;-79
2021/03/06 03:40:18;;;;;;;;;20.00;19.00;;;;;;;;5023864;28;8876;-79
2021/03/06 03:42:46;;;;;;;;;18.00;18.00;;;;;;;;5023579;28;8864;-79
2021/03/06 03:45:14;;;;;;;;;11.33;11.33;;;;;;;;5020942;28;8869;-77
2021/03/06 03:47:43;;;;;;;;;21.00;19.00;;;;;;;;5006383;28;9682;-78
2021/03/06 03:50:12;;;;;;;;;19.33;19.33;;;;;;;;5020427;28;8861;-77
2021/03/06 03:52:40;;;;;;;;;21.00;19.00;;;;;;;;5023189;28;8866;-76
2021/03/06 03:55:08;;;;;;;;;13.67;13.67;;;;;;;;5017630;28;8869;-78
2021/03/06 03:57:36;;;;;;;;;24.67;22.67;;;;;;;;5023632;28;8869;-78
2021/03/06 04:00:09;;;;;;;;;19.00;19.00;;;;;;;;5022856;28;8893;-77
2021/03/06 04:02:36;;;;;;;;;16.00;16.00;;;;;;;;5018796;28;8833;-79
2021/03/06 04:05:04;;;;;;;;;21.33;20.33;;;;;;;;5023443;28;8856;-77
2021/03/06 04:07:41;;;;;;;;;20.33;19.67;;;;;;;;5022963;28;8849;-77
2021/03/06 04:10:09;;;;;;;;;21.33;21.33;;;;;;;;5006719;28;8856;-79
2021/03/06 04:12:36;;;;;;;;;19.00;19.00;;;;;;;;5002268;28;8885;-80
2021/03/06 04:15:04;;;;;;;;;17.33;17.33;;;;;;;;5023401;28;8942;-79
2021/03/06 04:17:30;;;;;;;;;27.00;27.00;;;;;;;;5023268;28;8861;-76
2021/03/06 04:19:57;;;;;;;;;18.33;18.33;;;;;;;;5014179;28;8886;-75
2021/03/06 04:22:25;;;;;;;;;22.33;21.00;;;;;;;;5017379;28;9645;-79
2021/03/06 04:24:52;;;;;;;;;25.33;25.33;;;;;;;;5022364;28;8864;-78
2021/03/06 04:27:19;;;;;;;;;13.00;13.00;;;;;;;;5023795;28;8902;-79
2021/03/06 04:29:46;;;;;;;;;26.00;22.67;;;;;;;;5014781;28;8863;-79
2021/03/06 04:32:13;;;;;;;;;19.00;19.00;;;;;;;;5018408;28;8857;-79
2021/03/06 04:34:40;;;;;;;;;23.33;22.33;;;;;;;;5022530;28;8853;-79
2021/03/06 04:37:07;;;;;;;;;17.33;17.33;;;;;;;;5021803;28;8872;-77
2021/03/06 04:39:35;;;;;;;;;19.67;19.67;;;;;;;;5016863;28;8902;-76
2021/03/06 04:42:02;;;;;;;;;21.00;21.00;;;;;;;;5022585;28;8877;-76
2021/03/06 04:44:29;;;;;;;;;21.33;19.67;;;;;;;;5023138;28;8896;-76
2021/03/06 04:46:56;;;;;;;;;24.33;24.33;;;;;;;;5022430;28;8965;-78
2021/03/06 04:49:23;;;;;;;;;21.33;19.67;;;;;;;;5022002;28;8869;-76
2021/03/06 04:51:50;;;;;;;;;18.33;18.33;;;;;;;;5022149;28;8899;-78
2021/03/06 04:54:17;;;;;;;;;26.33;26.33;;;;;;;;5024906;28;9638;-78
2021/03/06 04:56:45;;;;;;;;;24.67;24.67;;;;;;;;5027846;28;8978;-78
2021/03/06 04:59:12;;;;;;;;;30.67;21.67;;;;;;;;5034004;28;8886;-78
2021/03/06 05:01:39;;;;;;;;;22.00;22.00;;;;;;;;5026324;28;8817;-75
2021/03/06 05:04:06;;;;;;;;;23.33;23.33;;;;;;;;5024209;28;8877;-77
2021/03/06 05:06:33;;;;;;;;;19.67;19.67;;;;;;;;5026307;28;8876;-78
2021/03/06 05:08:59;;;;;;;;;16.00;16.00;;;;;;;;5025753;28;9010;-76
2021/03/06 05:11:26;;;;;;;;;15.33;15.33;;;;;;;;5024833;28;8864;-78
2021/03/06 05:13:54;;;;;;;;;19.67;17.00;;;;;;;;5017445;28;8889;-78
2021/03/06 05:16:21;;;;;;;;;24.00;21.67;;;;;;;;5023616;28;8888;-78
2021/03/06 05:18:48;;;;;;;;;24.67;24.67;;;;;;;;5026323;28;8892;-78
2021/03/06 05:21:15;;;;;;;;;16.67;16.67;;;;;;;;5025510;28;8891;-75
2021/03/06 05:23:42;;;;;;;;;19.33;19.33;;;;;;;;5025945;28;8857;-78
2021/03/06 05:26:09;;;;;;;;;21.67;21.67;;;;;;;;5001137;28;8881;-79
2021/03/06 05:28:36;;;;;;;;;21.67;18.33;;;;;;;;5007890;28;8900;-75
2021/03/06 05:31:04;;;;;;;;;19.00;19.00;;;;;;;;5008352;28;8835;-76
2021/03/06 05:33:31;;;;;;;;;17.67;16.00;;;;;;;;5025070;28;8868;-79
2021/03/06 05:35:58;;;;;;;;;22.00;22.00;;;;;;;;5026462;28;8946;-76
2021/03/06 05:38:24;;;;;;;;;20.33;20.33;;;;;;;;5025578;28;8892;-77
2021/03/06 05:40:51;;;;;;;;;22.00;22.00;;;;;;;;5022156;28;8979;-78
2021/03/06 05:43:18;;;;;;;;;22.33;22.33;;;;;;;;5024390;28;8891;-76
2021/03/06 05:45:47;;;;;;;;;22.00;22.00;;;;;;;;5026339;28;8891;-78
2021/03/06 05:48:17;;;;;;;;;19.00;19.00;;;;;;;;5025860;28;8878;-76
2021/03/06 05:50:44;;;;;;;;;27.00;25.00;;;;;;;;5022737;28;8945;-78
2021/03/06 05:53:13;;;;;;;;;18.00;18.00;;;;;;;;5025958;28;9667;-79
2021/03/06 05:55:42;;;;;;;;;18.67;18.67;;;;;;;;5024845;28;8868;-75
2021/03/06 05:58:10;;;;;;;;;20.33;20.33;;;;;;;;5020028;28;8864;-78
2021/03/06 06:00:40;;;;;;;;;23.67;23.67;;;;;;;;5024675;28;8784;-75
2021/03/06 06:03:08;;;;;;;;;19.00;18.00;;;;;;;;5019507;28;8872;-80
2021/03/06 06:05:36;;;;;;;;;21.33;21.33;;;;;;;;5025641;28;8878;-80
2021/03/06 06:08:04;;;;;;;;;22.00;22.00;;;;;;;;5025804;28;8873;-79
2021/03/06 06:10:33;;;;;;;;;21.33;19.00;;;;;;;;5019411;28;8831;-81
2021/03/06 06:13:00;;;;;;;;;21.00;19.00;;;;;;;;5002607;28;9776;-79
2021/03/06 06:15:27;;;;;;;;;19.00;19.00;;;;;;;;5026266;28;8895;-82
2021/03/06 06:17:54;;;;;;;;;21.33;21.33;;;;;;;;5021243;28;8880;-76
2021/03/06 06:20:23;;;;;;;;;19.00;19.00;;;;;;;;5022548;28;8965;-79
2021/03/06 06:23:09;;;;;;;;;17.33;17.33;;;;;;;;5023258;28;8860;-76
2021/03/06 06:25:36;;;;;;;;;17.00;17.00;;;;;;;;5023472;28;8888;-76
2021/03/06 06:28:04;;;;;;;;;21.00;21.00;;;;;;;;5007337;28;8860;-76
2021/03/06 06:30:31;;;;;;;;;25.67;22.00;;;;;;;;5018370;28;8796;-78
2021/03/06 06:32:57;;;;;;;;;24.67;24.00;;;;;;;;5030588;28;8907;-75
2021/03/06 06:35:24;;;;;;;;;12.67;12.67;;;;;;;;5022858;28;8861;-75
2021/03/06 06:38:00;;;;;;;;;21.67;21.67;;;;;;;;5022335;28;8884;-78
2021/03/06 06:40:29;;;;;;;;;18.33;18.33;;;;;;;;5020527;28;8878;-73
2021/03/06 06:42:56;;;;;;;;;24.00;24.00;;;;;;;;5024330;28;9651;-76
2021/03/06 06:45:23;;;;;;;;;21.33;21.33;;;;;;;;5021315;28;8845;-76
2021/03/06 06:47:51;;;;;;;;;24.00;24.00;;;;;;;;5024204;28;9720;-74
2021/03/06 06:50:30;;;;;;;;;20.33;20.33;;;;;;;;5029675;28;8979;-76
2021/03/06 06:52:58;;;;;;;;;18.33;18.33;;;;;;;;5030544;28;8872;-75
2021/03/06 06:55:36;;;;;;;;;25.00;25.00;;;;;;;;5039849;28;8991;-76
2021/03/06 06:58:03;;;;;;;;;20.33;20.33;;;;;;;;5032955;28;8950;-77
2021/03/06 07:00:31;;;;;;;;;20.33;20.33;;;;;;;;5023081;28;8924;-78
2021/03/06 07:02:59;;;;;;;;;18.67;18.67;;;;;;;;5025739;28;8880;-77
2021/03/06 07:05:28;;;;;;;;;20.67;20.67;;;;;;;;5006398;28;8997;-76
2021/03/06 07:07:55;;;;;;;;;18.33;18.33;;;;;;;;5012743;28;9775;-76
2021/03/06 07:10:24;;;;;;;;;22.00;19.00;;;;;;;;5024219;28;8849;-76
2021/03/06 07:12:58;;;;;;;;;16.67;16.67;;;;;;;;5022300;28;8870;-77
2021/03/06 07:15:27;;;;;;;;;21.00;21.00;;;;;;;;5019372;28;8928;-75
2021/03/06 07:17:56;;;;;;;;;18.00;18.00;;;;;;;;5024180;28;8966;-76
2021/03/06 07:20:34;;;;;;;;;15.67;15.67;;;;;;;;5024587;28;8875;-75
2021/03/06 07:23:17;;;;;;;;;22.67;18.00;;;;;;;;5020619;28;8870;-76
2021/03/06 07:25:46;;;;;;;;;12.67;12.67;;;;;;;;5025969;28;9031;-75
2021/03/06 07:28:13;;;;;;;;;21.33;21.33;;;;;;;;5025132;28;8875;-73
2021/03/06 07:30:40;;;;;;;;;18.00;18.00;;;;;;;;5018466;28;8866;-75
2021/03/06 07:33:08;;;;;;;;;18.67;18.67;;;;;;;;5033866;28;8856;-75
2021/03/06 07:35:38;;;;;;;;;15.33;15.33;;;;;;;;5020713;28;8869;-75
2021/03/06 07:38:06;;;;;;;;;17.33;16.00;;;;;;;;5022621;28;9681;-74
2021/03/06 07:40:36;;;;;;;;;16.67;16.67;;;;;;;;5022364;28;8880;-78
2021/03/06 07:43:11;;;;;;;;;21.00;21.00;;;;;;;;5011326;28;8918;-77
2021/03/06 07:45:43;;;;;;;;;15.33;15.00;;;;;;;;5022865;28;8933;-76
2021/03/06 07:48:12;;;;;;;;;21.33;21.33;;;;;;;;5017359;28;8864;-76
2021/03/06 07:50:41;;;;;;;;;16.00;16.00;;;;;;;;5020442;28;8872;-75
2021/03/06 07:53:07;;;;;;;;;21.33;18.67;;;;;;;;5024269;28;9736;-72
2021/03/06 07:55:35;;;;;;;;;11.33;11.33;;;;;;;;5025113;28;8873;-78
2021/03/06 07:58:08;;;;;;;;;15.67;15.67;;;;;;;;5023702;28;8865;-71
2021/03/06 08:00:48;;;;;;;;;24.67;19.33;;;;;;;;5020124;28;8860;-73
2021/03/06 08:03:37;;;;;;;;;19.00;19.00;;;;;;;;5020960;28;8853;-71
2021/03/06 08:06:18;;;;;;;;;15.00;15.00;;;;;;;;5004347;28;8942;-71
2021/03/06 08:09:05;;;;;;;;;15.67;15.67;;;;;;;;5023901;28;8883;-73
2021/03/06 08:11:43;;;;;;;;;18.67;18.67;;;;;;;;5016500;28;9045;-71
2021/03/06 08:14:42;;;;;;;;;19.00;18.00;;;;;;;;5024309;28;8874;-77
2021/03/06 08:17:34;;;;;;;;;22.00;22.00;;;;;;;;4943425;29;8893;-70
2021/03/06 08:20:02;;;;;;;;;19.67;19.67;;;;;;;;5014736;28;8888;-71
2021/03/06 08:22:29;;;;;;;;;21.67;21.67;;;;;;;;5023021;28;8864;-69
2021/03/06 08:24:55;;;;;;;;;13.00;13.00;;;;;;;;5022925;28;8968;-71
2021/03/06 08:27:23;;;;;;;;;22.33;22.33;;;;;;;;5027052;28;8900;-70
2021/03/06 08:29:57;;;;;;;;;22.00;17.00;;;;;;;;5009067;28;9007;-70
2021/03/06 08:32:30;;;;;;;;;16.00;15.00;;;;;;;;5033486;28;8854;-70
2021/03/06 08:34:58;;;;;;;;;16.33;16.33;;;;;;;;5028205;28;8888;-70
2021/03/06 08:37:45;;;;;;;;;19.67;17.67;;;;;;;;5026499;28;8927;-70
2021/03/06 08:40:27;;;;;;;;;18.33;18.33;;;;;;;;5019245;28;11769;-69
2021/03/06 08:42:55;;;;;;;;;25.67;23.00;;;;;;;;5026407;28;11658;-71
2021/03/06 08:45:24;;;;;;;;;23.00;23.00;;;;;;;;5025131;28;11603;-69
2021/03/06 08:47:57;;;;;;;;;24.00;19.00;;;;;;;;5018829;28;11552;-69
2021/03/06 08:50:24;;;;;;;;;20.75;16.00;;;;;;;;5023982;28;11715;-70
2021/03/06 08:52:56;;;;;;;;;16.00;13.25;;;;;;;;5025735;28;11557;-69
2021/03/06 08:55:25;;;;;;;;;17.50;17.50;;;;;;;;5027013;28;11529;-69
2021/03/06 08:57:52;;;;;;;;;14.25;14.25;;;;;;;;5020619;28;12374;-70
2021/03/06 09:00:24;;;;;;;;;15.50;14.00;;;;;;;;5022736;28;11660;-69
2021/03/06 09:02:51;;;;;;;;;10.50;8.00;;;;;;;;5025397;28;11604;-69
2021/03/06 09:05:21;;;;;;;;;14.75;12.50;;;;;;;;5027605;28;12292;-70
2021/03/06 09:07:50;;;;;;;;;16.00;16.00;;;;;;;;5022550;28;11586;-69
2021/03/06 09:10:23;;;;;;;;;11.00;11.00;;;;;;;;5026551;28;11783;-70
2021/03/06 09:12:52;;;;;;;;;17.75;15.25;;;;;;;;5026076;28;11563;-70
2021/03/06 09:15:38;;;;;;;;;15.75;12.00;;;;;;;;5025708;28;11567;-70
2021/03/06 09:18:06;;;;;;;;;10.00;10.00;;;;;;;;5026631;28;11673;-70
2021/03/06 09:20:39;;;;;;;;;7.00;7.00;;;;;;;;5025009;28;11550;-70
2021/03/06 09:23:06;;;;;;;;;14.00;11.50;;;;;;;;5025546;28;11495;-70
2021/03/06 09:25:35;;;;;;;;;8.50;6.25;;;;;;;;5025451;28;11572;-70
2021/03/06 09:28:03;;;;;;;;;12.00;12.00;;;;;;;;5021641;28;10959;-70
2021/03/06 09:30:34;;;;;;;;;10.50;10.50;;;;;;;;5025008;28;11480;-70
2021/03/06 09:33:01;;;;;;;;;13.00;13.00;;;;;;;;5022876;28;13050;-70
2021/03/06 09:35:28;;;;;;;;;11.50;11.50;;;;;;;;5025526;28;11623;-70
2021/03/06 09:38:07;;;;;;;;;9.50;8.00;;;;;;;;5023655;28;11582;-70
2021/03/06 09:40:43;;;;;;;;;10.50;10.50;;;;;;;;5024895;28;11578;-71
2021/03/06 09:43:12;;;;;;;;;10.75;10.75;;;;;;;;5025649;28;12293;-70
2021/03/06 09:45:40;;;;;;;;;12.25;10.75;;;;;;;;5025221;28;11617;-70
2021/03/06 09:48:12;;;;;;;;;12.75;11.75;;;;;;;;5028136;28;11568;-70
2021/03/06 09:50:40;;;;;;;;;9.00;9.00;;;;;;;;5026723;28;11571;-71
2021/03/06 09:53:18;;;;;;;;;6.50;6.50;;;;;;;;5030911;28;11495;-70
2021/03/06 09:55:46;;;;;;;;;8.00;8.00;;;;;;;;5023237;28;11508;-70
2021/03/06 09:58:18;;;;;;;;;12.25;9.50;;;;;;;;5022544;28;11524;-70
2021/03/06 10:00:45;;;;;;;;;5.00;5.00;;;;;;;;5022355;28;11913;-70
2021/03/06 10:03:12;;;;;;;;;11.50;11.50;;;;;;;;5023443;28;11510;-70
2021/03/06 10:05:40;;;;;;;;;9.25;8.50;;;;;;;;5017226;28;11609;-70
2021/03/06 10:08:07;;;;;;;;;7.00;7.00;;;;;;;;5023055;28;11535;-69
2021/03/06 10:10:34;;;;;;;;;9.50;6.00;;;;;;;;5020730;28;11521;-69
2021/03/06 10:13:01;;;;;;;;;8.00;8.00;;;;;;;;5022657;28;11568;-70
2021/03/06 10:15:28;;;;;;;;;7.50;7.50;;;;;;;;5024219;28;11573;-69
2021/03/06 10:17:56;;;;;;;;;9.00;9.00;;;;;;;;5020397;28;11565;-70
2021/03/06 10:20:29;;;;;;;;;6.00;6.00;;;;;;;;5020631;28;11508;-70
2021/03/06 10:22:56;;;;;;;;;6.50;6.50;;;;;;;;5024870;28;11667;-70
2021/03/06 10:25:24;;;;;;;;;6.00;6.00;;;;;;;;5023690;28;11498;-70
2021/03/06 10:27:51;;;;;;;;;5.25;5.25;;;;;;;;5018934;28;11444;-70
2021/03/06 10:30:20;;;;;;;;;6.25;6.25;;;;;;;;5020689;28;12234;-70
2021/03/06 10:32:49;;;;;;;;;3.75;3.25;;;;;;;;5005217;28;12019;-71
2021/03/06 10:35:35;;;;;;;;;6.25;5.00;;;;;;;;5038045;28;11482;-71
2021/03/06 10:38:03;;;;;;;;;3.25;3.25;;;;;;;;5012727;28;11485;-71
2021/03/06 10:40:47;;;;;;;;;3.00;3.00;;;;;;;;5032626;28;11468;-71
2021/03/06 10:43:28;;;;;;;;;4.00;4.00;;;;;;;;5024476;28;11560;-71
2021/03/06 10:45:55;;;;;;;;;5.00;4.00;;;;;;;;5024715;28;11466;-71
2021/03/06 10:48:29;;;;;;;;;5.25;3.50;;;;;;;;5006692;28;11498;-70
2021/03/06 10:50:58;;;;;;;;;5.00;5.00;;;;;;;;5017983;28;11490;-70
2021/03/06 10:53:28;;;;;;;;;5.50;5.50;;;;;;;;5017381;28;11502;-69
2021/03/06 10:55:55;;;;;;;;;3.00;3.00;;;;;;;;5003089;28;11454;-73
2021/03/06 10:58:40;;;;;;;;;7.00;7.00;;;;;;;;5008629;28;11518;-70
2021/03/06 11:01:07;;;;;;;;;6.00;6.00;;;;;;;;5017796;28;11410;-71
2021/03/06 11:03:39;;;;;;;;;3.00;3.00;;;;;;;;5011171;28;11506;-70
2021/03/06 11:06:07;;;;;;;;;6.00;6.00;;;;;;;;5023960;28;11521;-72
2021/03/06 11:08:34;;;;;;;;;5.00;5.00;;;;;;;;5023380;28;11435;-71
2021/03/06 11:11:01;;;;;;;;;6.25;6.25;;;;;;;;5024773;28;11553;-71
2021/03/06 11:13:39;;;;;;;;;8.75;8.00;;;;;;;;5023020;28;12263;-71
2021/03/06 11:16:07;;;;;;;;;7.00;7.00;;;;;;;;5006284;28;11484;-71
2021/03/06 11:18:35;;;;;;;;;6.00;6.00;;;;;;;;5020411;28;11445;-71
2021/03/06 11:21:02;;;;;;;;;10.00;10.00;;;;;;;;5017841;28;12357;-71
2021/03/06 11:23:30;;;;;;;;;5.00;5.00;;;;;;;;5023746;28;11542;-71
2021/03/06 11:25:58;;;;;;;;;4.50;4.50;;;;;;;;5020027;28;11446;-71
2021/03/06 11:28:26;;;;;;;;;6.25;6.25;;;;;;;;5023434;28;11454;-71
2021/03/06 11:30:53;;;;;;;;;8.50;5.00;;;;;;;;5021212;28;11402;-70
2021/03/06 11:33:21;;;;;;;;;11.50;9.00;;;;;;;;5028961;28;11463;-71
2021/03/06 11:35:49;;;;;;;;;8.75;8.75;;;;;;;;5021166;28;11498;-70
2021/03/06 11:38:19;;;;;;;;;6.25;6.25;;;;;;;;5020046;28;11432;-71
2021/03/06 11:40:49;;;;;;;;;6.00;6.00;;;;;;;;5019431;28;11450;-70
2021/03/06 11:43:17;;;;;;;;;9.75;9.75;;;;;;;;5020974;28;12251;-73
2021/03/06 11:45:45;;;;;;;;;10.75;7.25;;;;;;;;5022607;28;11489;-70
2021/03/06 11:48:12;;;;;;;;;9.50;6.00;;;;;;;;5014768;28;11532;-69
2021/03/06 11:50:41;;;;;;;;;11.75;8.00;;;;;;;;5021035;28;11540;-69
2021/03/06 11:53:08;;;;;;;;;7.25;7.25;;;;;;;;5027154;28;12102;-70
2021/03/06 11:55:36;;;;;;;;;10.50;10.00;;;;;;;;5021326;28;11466;-70
2021/03/06 11:58:04;;;;;;;;;11.75;10.75;;;;;;;;5019655;28;11524;-71
2021/03/06 12:00:33;;;;;;;;;8.25;8.25;;;;;;;;5018973;28;11434;-71
2021/03/06 12:03:00;;;;;;;;;9.50;8.25;;;;;;;;5020209;28;11254;-68
2021/03/06 12:05:27;;;;;;;;;10.00;10.00;;;;;;;;5019556;28;11249;-68
2021/03/06 12:07:56;;;;;;;;;11.25;9.75;;;;;;;;5026085;28;11899;-70
2021/03/06 12:10:25;;;;;;;;;5.75;5.00;;;;;;;;5022390;28;11277;-69
2021/03/06 12:12:54;;;;;;;;;8.00;8.00;;;;;;;;5021793;28;11006;-71
2021/03/06 12:15:22;;;;;;;;;7.50;7.50;;;;;;;;5021431;28;11003;-71
2021/03/06 12:17:49;;;;;;;;;17.75;16.00;;;;;;;;5020827;28;10934;-71
2021/03/06 12:20:17;;;;;;;;;29.00;25.50;;;;;;;;5022046;28;11335;-71
2021/03/06 12:22:45;;;;;;;;;55.25;44.50;;;;;;;;5003080;28;12353;-70
2021/03/06 12:25:13;;;;;;;;;56.00;46.50;;;;;;;;5021394;28;11552;-70
2021/03/06 12:27:40;;;;;;;;;14.25;11.25;;;;;;;;5018600;28;11722;-72
2021/03/06 12:30:10;;;;;;;;;13.00;13.00;;;;;;;;5020106;28;11132;-72
2021/03/06 12:32:38;;;;;;;;;7.75;7.75;;;;;;;;5018188;28;11833;-71
2021/03/06 12:35:07;;;;;;;;;9.25;8.25;;;;;;;;5015110;28;10788;-71
2021/03/06 12:37:35;;;;;;;;;19.50;17.50;;;;;;;;5021590;28;10714;-72
2021/03/06 12:40:03;;;;;;;;;7.00;7.00;;;;;;;;5018815;28;10902;-72
2021/03/06 12:42:30;;;;;;;;;8.75;8.75;;;;;;;;5017590;28;10569;-72
2021/03/06 12:44:57;;;;;;;;;7.00;7.00;;;;;;;;5020699;28;10512;-73
2021/03/06 12:47:23;;;;;;;;;9.00;6.75;;;;;;;;5019366;28;10502;-72
2021/03/06 12:49:51;;;;;;;;;6.00;6.00;;;;;;;;5015535;28;10356;-71
2021/03/06 12:52:18;;;;;;;;;7.25;7.00;;;;;;;;5019349;28;10437;-72
2021/03/06 12:54:45;;;;;;;;;9.00;9.00;;;;;;;;4999145;28;10350;-72
2021/03/06 12:57:12;;;;;;;;;11.75;9.50;;;;;;;;5018055;28;10460;-72
2021/03/06 12:59:38;;;;;;;;;7.75;7.00;;;;;;;;5025786;28;10473;-72
2021/03/06 13:02:05;;;;;;;;;9.75;8.75;;;;;;;;5012271;28;11125;-71
2021/03/06 13:04:32;;;;;;;;;12.75;11.50;;;;;;;;5020546;28;10513;-72
2021/03/06 13:07:00;;;;;;;;;18.00;14.25;;;;;;;;5017550;28;10648;-72
2021/03/06 13:09:27;;;;;;;;;10.25;10.25;;;;;;;;5020295;28;10528;-73
2021/03/06 13:11:54;;;;;;;;;8.50;8.50;;;;;;;;5021117;28;10483;-72
2021/03/06 13:14:21;;;;;;;;;11.00;11.00;;;;;;;;5022269;28;10499;-72
2021/03/06 13:16:47;;;;;;;;;13.00;11.25;;;;;;;;5021804;28;10445;-73
2021/03/06 13:19:14;;;;;;;;;8.50;8.50;;;;;;;;5021036;28;10954;-72
2021/03/06 13:21:41;;;;;;;;;9.50;8.50;;;;;;;;5025192;28;10254;-72
2021/03/06 13:24:11;;;;;;;;;12.00;10.75;;;;;;;;5021906;28;10362;-72
2021/03/06 13:26:37;;;;;;;;;15.00;15.00;;;;;;;;5022061;28;10283;-72
2021/03/06 13:29:04;;;;;;;;;14.25;14.00;;;;;;;;5022874;28;10365;-72
2021/03/06 13:31:31;;;;;;;;;11.75;11.75;;;;;;;;5023745;28;11100;-72
2021/03/06 13:33:58;;;;;;;;;8.00;8.00;;;;;;;;5020393;28;10218;-73
2021/03/06 13:36:25;;;;;;;;;9.00;9.00;;;;;;;;5016673;28;10075;-77
2021/03/06 13:38:53;;;;;;;;;9.00;9.00;;;;;;;;5020987;28;10230;-71
2021/03/06 13:41:20;;;;;;;;;12.25;10.50;;;;;;;;5022029;28;10131;-71
2021/03/06 13:43:47;;;;;;;;;9.50;9.25;;;;;;;;5019595;28;10319;-72
2021/03/06 13:46:14;;;;;;;;;10.25;10.25;;;;;;;;5021003;28;10087;-71
2021/03/06 13:48:40;;;;;;;;;8.25;8.25;;;;;;;;5024445;28;10222;-71
2021/03/06 13:51:08;;;;;;;;;8.50;8.00;;;;;;;;5017480;28;10219;-71
2021/03/06 13:53:35;;;;;;;;;10.00;10.00;;;;;;;;5025663;28;10304;-71
2021/03/06 13:56:03;;;;;;;;;14.00;11.00;;;;;;;;5026237;28;10215;-71
2021/03/06 13:58:31;;;;;;;;;8.00;8.00;;;;;;;;5029087;28;10251;-71
2021/03/06 14:00:58;;;;;;;;;9.75;9.75;;;;;;;;5025513;28;10202;-71
2021/03/06 14:03:25;;;;;;;;;9.75;9.00;;;;;;;;5025126;28;10601;-71
2021/03/06 14:05:51;;;;;;;;;14.50;12.00;;;;;;;;5025553;28;10709;-71
2021/03/06 14:08:18;;;;;;;;;12.50;10.25;;;;;;;;5025649;28;10910;-71
2021/03/06 14:10:45;;;;;;;;;15.25;10.25;;;;;;;;5025488;28;11875;-71
2021/03/06 14:13:12;;;;;;;;;12.25;9.50;;;;;;;;5026050;28;11142;-71
2021/03/06 14:15:39;;;;;;;;;9.00;9.00;;;;;;;;5024295;28;10932;-71
2021/03/06 14:18:06;;;;;;;;;7.75;7.75;;;;;;;;5018638;28;10608;-72
2021/03/06 14:20:34;;;;;;;;;9.75;9.75;;;;;;;;5005431;28;10582;-71
2021/03/06 14:23:01;;;;;;;;;10.75;9.25;;;;;;;;5011826;28;10561;-71
2021/03/06 14:25:28;;;;;;;;;8.00;8.00;;;;;;;;5025170;28;10715;-71
2021/03/06 14:27:54;;;;;;;;;11.75;9.25;;;;;;;;5024976;28;10510;-71
2021/03/06 14:30:22;;;;;;;;;12.50;10.00;;;;;;;;5019862;28;10485;-71
2021/03/06 14:32:49;;;;;;;;;14.75;14.00;;;;;;;;5023919;28;10633;-71
2021/03/06 14:35:16;;;;;;;;;11.25;9.00;;;;;;;;5023864;28;10628;-71
2021/03/06 14:37:43;;;;;;;;;7.50;7.00;;;;;;;;5023620;28;10327;-71
2021/03/06 14:40:11;;;;;;;;;9.75;8.00;;;;;;;;5022772;28;10339;-71
2021/03/06 14:42:38;;;;;;;;;8.50;8.50;;;;;;;;5023808;28;11106;-72